Terminal Aerodrome Forecast
Issued by NWS Pueblo, CO

Home | Current Version | Previous Version | Text Only | Print | Product List | Glossary On
Versions: 1 2 3 4 5 6 7 8 9 10 11 12 13 14 15 16 17 18 19 20 21 22 23 24 25 26 27 28 29 30 31 32 33 34 35 36 37 38 39 40 41 42 43 44 45 46 47 48 49 50
000
FTUS45 KPUB 050701 AAA
TAFPUB
TAF AMD
KPUB 050701Z 0507/0606 10008KT P6SM VCSH SCT008 BKN015
      TEMPO 0508/0511 5SM -SHRA BR OVC008
     FM051100 09010KT 5SM -SHRA BR SCT015 OVC025
     FM052000 12012KT P6SM VCTS SCT025CB BKN050
     FM060300 26006KT P6SM SCT030 BKN080=

USA.gov is the U.S. government's official web portal to all federal, state and local government web resources and services.